createdAt,value
2022-11-14T00:00:23.385Z,98109.97
2022-11-14T00:03:09.587Z,98113.69
2022-11-14T00:05:55.368Z,98108.97
2022-11-14T00:08:40.857Z,98103.03
2022-11-14T00:11:26.367Z,98109.03
2022-11-14T00:14:12.221Z,98110.69
2022-11-14T00:16:58.093Z,98118.69
2022-11-14T00:19:43.747Z,98114.03
2022-11-14T00:22:29.593Z,98109.69
2022-11-14T00:25:15.027Z,98104.03
2022-11-14T00:28:00.437Z,98115.31
2022-11-14T00:30:47.277Z,98098.03
2022-11-14T00:33:33.038Z,98104.66
2022-11-14T00:36:18.584Z,98106.97
2022-11-14T00:39:04.862Z,98094.56
2022-11-14T00:41:50.434Z,98098.75
2022-11-14T00:44:36.455Z,98107.97
2022-11-14T00:47:22.136Z,98108.69
2022-11-14T00:50:07.797Z,98102.66
2022-11-14T00:52:53.192Z,98099.16
2022-11-14T00:55:39.119Z,98095.50
2022-11-14T00:58:24.608Z,98094.59
2022-11-14T01:01:10.012Z,98078.03
2022-11-14T01:03:55.889Z,98076.88
2022-11-14T01:06:41.315Z,98096.16
2022-11-14T01:09:26.828Z,98095.78
2022-11-14T01:12:12.594Z,98094.59
2022-11-14T01:14:58.137Z,98089.28
2022-11-14T01:17:43.685Z,98084.69
2022-11-14T01:20:29.340Z,98080.19
2022-11-14T01:23:15.641Z,98088.44
2022-11-14T01:26:05.680Z,98079.34
2022-11-14T01:28:51.526Z,98078.88
2022-11-14T01:31:37.309Z,98073.84
2022-11-14T01:34:23.382Z,98070.38
2022-11-14T01:37:09.630Z,98076.34
2022-11-14T01:39:55.160Z,98068.03
2022-11-14T01:42:40.959Z,98069.34
2022-11-14T01:45:45.708Z,98080.63
2022-11-14T01:49:03.549Z,98071.53
2022-11-14T01:51:51.181Z,98061.94
2022-11-14T01:54:43.327Z,98068.09
2022-11-14T01:57:30.896Z,98075.38
2022-11-14T02:00:16.564Z,98067.09
2022-11-14T02:03:03.107Z,98062.78
2022-11-14T02:05:50.239Z,98051.19
2022-11-14T02:08:36.683Z,98063.50
2022-11-14T02:11:22.563Z,98071.31
2022-11-14T02:14:08.226Z,98067.00
2022-11-14T02:17:14.875Z,98059.50
2022-11-14T02:20:15.378Z,98062.84
2022-11-14T02:23:01.133Z,98058.53
2022-11-14T02:25:46.666Z,98057.59
2022-11-14T02:28:32.515Z,98051.63
2022-11-14T02:31:18.300Z,98069.59
2022-11-14T02:34:03.674Z,98064.25
2022-11-14T02:36:49.539Z,98071.78
2022-11-14T02:39:35.368Z,98067.28
2022-11-14T02:42:21.181Z,98063.81
2022-11-14T02:45:07.109Z,98080.09
2022-11-14T02:47:52.819Z,98075.31
2022-11-14T02:50:38.847Z,98069.38
2022-11-14T02:53:24.407Z,98052.47
2022-11-14T02:56:10.219Z,98064.53
2022-11-14T02:58:55.829Z,98068.88
2022-11-14T03:01:41.558Z,98060.78
2022-11-14T03:04:27.555Z,98044.63
2022-11-14T03:07:12.921Z,98050.16
2022-11-14T03:09:58.598Z,98048.00
2022-11-14T03:12:44.428Z,98052.03
2022-11-14T03:15:29.812Z,98041.25
2022-11-14T03:18:15.154Z,98036.44
2022-11-14T03:21:08.149Z,98036.84
2022-11-14T03:23:53.788Z,98042.16
2022-11-14T03:26:39.636Z,98034.53
2022-11-14T03:29:25.270Z,98025.44
2022-11-14T03:32:10.874Z,98033.25
2022-11-14T03:34:56.607Z,98038.56
2022-11-14T03:37:42.458Z,98034.59
2022-11-14T03:40:27.979Z,98038.56
2022-11-14T03:43:13.804Z,98041.25
2022-11-14T03:46:00.552Z,98040.63
2022-11-14T03:48:45.911Z,98037.97
2022-11-14T03:51:31.653Z,98022.66
2022-11-14T03:54:17.021Z,98038.13
2022-11-14T03:57:02.606Z,98037.97
2022-11-14T03:59:48.320Z,98023.72
2022-11-14T04:02:33.935Z,98032.84
2022-11-14T04:05:19.624Z,98025.38
2022-11-14T04:08:05.692Z,98026.53
2022-11-14T04:10:51.521Z,98025.03
2022-11-14T04:13:37.308Z,98031.31
2022-11-14T04:16:23.085Z,98028.66
2022-11-14T04:19:08.622Z,98029.19
2022-11-14T04:21:54.544Z,98024.19
2022-11-14T04:24:40.301Z,98027.19
2022-11-14T04:27:25.510Z,98022.72
2022-11-14T04:30:11.556Z,98034.34
2022-11-14T04:32:57.147Z,98039.13
2022-11-14T04:35:42.800Z,98042.28
2022-11-14T04:38:29.094Z,98027.72
2022-11-14T04:41:14.826Z,98036.34
2022-11-14T04:44:00.606Z,98043.94
2022-11-14T04:46:46.180Z,98043.75
2022-11-14T04:49:31.679Z,98050.22
2022-11-14T04:52:17.470Z,98047.19
2022-11-14T04:55:03.262Z,98044.25
2022-11-14T04:57:53.794Z,98042.03
2022-11-14T05:00:39.204Z,98035.81
2022-11-14T05:03:25.320Z,98034.34
2022-11-14T05:06:11.162Z,98030.69
2022-11-14T05:08:56.775Z,98040.00
2022-11-14T05:11:42.457Z,98045.16
2022-11-14T05:14:28.078Z,98050.84
2022-11-14T05:17:13.517Z,98052.84
2022-11-14T05:19:58.968Z,98053.69
2022-11-14T05:22:44.813Z,98052.50
2022-11-14T05:25:30.271Z,98055.34
2022-11-14T05:28:16.067Z,98062.47
2022-11-14T05:31:13.529Z,98056.00
2022-11-14T05:33:59.419Z,98046.56
2022-11-14T05:36:44.896Z,98044.22
2022-11-14T05:39:31.185Z,98048.50
2022-11-14T05:42:16.875Z,98050.47
2022-11-14T05:45:02.661Z,98064.34
2022-11-14T05:47:48.421Z,98059.38
2022-11-14T05:50:34.221Z,98054.63
2022-11-14T05:53:19.826Z,98055.16
2022-11-14T05:56:07.216Z,98060.75
2022-11-14T05:58:53.052Z,98068.66
2022-11-14T06:01:38.968Z,98054.75
2022-11-14T06:04:24.722Z,98064.63
2022-11-14T06:07:10.650Z,98064.63
2022-11-14T06:09:56.404Z,98061.28
2022-11-14T06:12:42.054Z,98056.38
2022-11-14T06:15:27.574Z,98061.72
2022-11-14T06:18:13.131Z,98060.59
2022-11-14T06:20:59.148Z,98063.88
2022-11-14T06:23:45.749Z,98064.69
2022-11-14T06:26:31.966Z,98073.97
2022-11-14T06:29:17.491Z,98082.44
2022-11-14T06:32:03.314Z,98074.31
2022-11-14T06:34:49.047Z,98080.56
2022-11-14T06:37:35.964Z,98086.19
2022-11-14T06:40:21.793Z,98084.41
2022-11-14T06:43:07.171Z,98076.63
2022-11-14T06:45:55.933Z,98101.81
2022-11-14T06:48:42.308Z,98117.59
2022-11-14T06:51:27.988Z,98125.00
2022-11-14T06:54:13.741Z,98145.56
2022-11-14T06:56:59.563Z,98153.06
2022-11-14T06:59:45.548Z,98155.72
2022-11-14T07:02:31.321Z,98150.28
2022-11-14T07:05:16.811Z,98154.22
2022-11-14T07:08:02.295Z,98153.31
2022-11-14T07:10:47.848Z,98141.94
2022-11-14T07:13:34.092Z,98151.88
2022-11-14T07:16:20.263Z,98157.03
2022-11-14T07:19:06.820Z,98151.44
2022-11-14T07:21:52.377Z,98144.22
2022-11-14T07:24:38.104Z,98153.25
2022-11-14T07:27:23.879Z,98155.75
2022-11-14T07:30:09.767Z,98158.94
2022-11-14T07:32:56.148Z,98159.25
2022-11-14T07:35:41.962Z,98164.44
2022-11-14T07:38:28.078Z,98164.94
2022-11-14T07:41:15.953Z,98168.31
2022-11-14T07:44:01.376Z,98169.00
2022-11-14T07:46:47.307Z,98177.50
2022-11-14T07:49:35.358Z,98187.47
2022-11-14T07:52:20.895Z,98190.63
2022-11-14T07:55:06.543Z,98181.00
2022-11-14T07:57:53.230Z,98180.34
2022-11-14T08:00:38.722Z,98165.75
2022-11-14T08:03:24.361Z,98172.19
2022-11-14T08:06:11.740Z,98169.31
2022-11-14T08:08:57.500Z,98169.28
2022-11-14T08:11:49.062Z,98175.91
2022-11-14T08:14:35.213Z,98167.53
2022-11-14T08:17:21.857Z,98169.50
2022-11-14T08:20:08.266Z,98171.13
2022-11-14T08:22:54.782Z,98173.03
2022-11-14T08:25:41.009Z,98183.72
2022-11-14T08:28:27.276Z,98183.31
2022-11-14T08:31:13.700Z,98178.81
2022-11-14T08:33:59.391Z,98177.59
2022-11-14T08:36:45.301Z,98179.72
2022-11-14T08:39:31.041Z,98188.75
2022-11-14T08:42:16.509Z,98188.03
2022-11-14T08:45:02.464Z,98192.22
2022-11-14T08:47:51.969Z,98191.53
2022-11-14T08:50:37.495Z,98194.13
2022-11-14T08:53:23.121Z,98193.13
2022-11-14T08:56:09.873Z,98195.22
2022-11-14T08:58:55.765Z,98204.06
2022-11-14T09:01:42.364Z,98201.56
2022-11-14T09:04:27.939Z,98204.91
2022-11-14T09:07:14.292Z,98204.72
2022-11-14T09:09:59.902Z,98197.34
2022-11-14T09:12:45.690Z,98200.94
2022-11-14T09:15:31.512Z,98206.38
2022-11-14T09:18:17.092Z,98204.25
2022-11-14T09:21:03.688Z,98205.84
2022-11-14T09:23:49.478Z,98206.56
2022-11-14T09:26:35.068Z,98210.75
2022-11-14T09:29:20.805Z,98216.91
2022-11-14T09:32:06.372Z,98224.06
2022-11-14T09:34:52.286Z,98226.22
2022-11-14T09:37:38.439Z,98226.25
2022-11-14T09:40:23.938Z,98230.66
2022-11-14T09:43:28.418Z,98240.13
2022-11-14T09:46:25.731Z,98235.56
2022-11-14T09:49:20.054Z,98226.81
2022-11-14T09:52:29.121Z,98234.31
2022-11-14T09:55:20.071Z,98244.03
2022-11-14T09:58:06.346Z,98244.50
2022-11-14T10:00:55.833Z,98257.16
2022-11-14T10:03:49.964Z,98258.03
2022-11-14T10:06:40.235Z,98259.91
2022-11-14T10:09:37.938Z,98254.53
2022-11-14T10:12:34.395Z,98252.81
2022-11-14T10:15:31.102Z,98251.31
2022-11-14T10:18:33.337Z,98250.22
2022-11-14T10:21:24.828Z,98247.34
2022-11-14T10:24:22.950Z,98251.53
2022-11-14T10:27:16.015Z,98236.72
2022-11-14T10:30:01.635Z,98239.91
2022-11-14T10:32:58.346Z,98238.13
2022-11-14T10:35:50.526Z,98240.69
2022-11-14T10:38:40.122Z,98242.53
2022-11-14T10:41:50.362Z,98236.41
2022-11-14T10:44:37.464Z,98240.63
2022-11-14T10:47:25.453Z,98247.06
2022-11-14T10:50:25.323Z,98245.28
2022-11-14T10:53:16.151Z,98236.78
2022-11-14T10:56:05.522Z,98232.25
2022-11-14T10:58:51.511Z,98224.44
2022-11-14T11:01:38.880Z,98226.09
2022-11-14T11:04:26.245Z,98225.28
2022-11-14T11:07:32.265Z,98207.56
2022-11-14T11:10:41.230Z,98190.22
2022-11-14T11:13:37.397Z,98182.41
2022-11-14T11:16:24.148Z,98183.19
2022-11-14T11:19:39.013Z,98185.69
2022-11-14T11:22:29.515Z,98183.44
2022-11-14T11:25:22.677Z,98182.81
2022-11-14T11:28:11.045Z,98174.97
2022-11-14T11:30:57.816Z,98178.47
2022-11-14T11:33:44.146Z,98174.56
2022-11-14T11:36:31.505Z,98178.28
2022-11-14T11:39:23.402Z,98179.09
2022-11-14T11:42:13.603Z,98178.28
2022-11-14T11:45:02.291Z,98184.06
2022-11-14T11:47:56.264Z,98181.19
2022-11-14T11:50:42.284Z,98183.25
2022-11-14T11:53:39.228Z,98166.94
2022-11-14T11:56:26.281Z,98167.56
2022-11-14T11:59:11.727Z,98161.34
2022-11-14T12:02:12.981Z,98170.25
2022-11-14T12:05:00.724Z,98161.75
2022-11-14T12:07:55.039Z,98158.69
2022-11-14T12:10:41.750Z,98152.47
2022-11-14T12:13:45.779Z,98153.69
2022-11-14T12:16:57.462Z,98140.88
2022-11-14T12:19:46.165Z,98136.53
2022-11-14T12:22:37.852Z,98140.66
2022-11-14T12:25:44.088Z,98134.03
2022-11-14T12:28:40.525Z,98134.22
2022-11-14T12:31:28.964Z,98131.34
2022-11-14T12:34:30.728Z,98137.53
2022-11-14T12:37:18.452Z,98130.69
2022-11-14T12:40:08.676Z,98127.41
2022-11-14T12:42:54.532Z,98123.44
2022-11-14T12:45:40.081Z,98126.91
2022-11-14T12:48:25.462Z,98121.97
2022-11-14T12:51:26.422Z,98128.56
2022-11-14T12:54:32.083Z,98119.66
2022-11-14T12:57:47.186Z,98114.69
2022-11-14T13:00:39.751Z,98111.97
2022-11-14T13:03:37.600Z,98109.28
2022-11-14T13:06:26.945Z,98111.16
2022-11-14T13:09:21.886Z,98099.75
2022-11-14T13:12:58.621Z,98096.69
2022-11-14T13:16:07.577Z,98085.94
2022-11-14T13:19:32.360Z,98088.41
2022-11-14T13:22:20.517Z,98075.38
2022-11-14T13:25:06.361Z,98076.03
2022-11-14T13:28:18.913Z,98068.19
2022-11-14T13:31:15.800Z,98065.28
2022-11-14T13:34:04.466Z,98067.56
2022-11-14T13:36:50.257Z,98060.50
2022-11-14T13:39:43.623Z,98055.53
2022-11-14T13:42:47.539Z,98054.31
2022-11-14T13:45:35.693Z,98053.69
2022-11-14T13:48:24.386Z,98033.63
2022-11-14T13:51:36.741Z,98035.31
2022-11-14T13:54:18.803Z,98033.47
2022-11-14T13:57:14.486Z,98029.34
2022-11-14T14:00:16.807Z,98024.00
2022-11-14T14:03:11.885Z,98014.56
2022-11-14T14:06:06.616Z,98023.47
2022-11-14T14:09:00.668Z,98009.84
2022-11-14T14:12:04.916Z,98007.00
2022-11-14T14:14:51.056Z,97999.56
2022-11-14T14:17:45.750Z,97989.09
2022-11-14T14:20:37.483Z,98001.69
2022-11-14T14:23:22.873Z,97993.25
2022-11-14T14:26:24.518Z,97984.19
2022-11-14T14:29:12.903Z,97988.75
2022-11-14T14:32:12.651Z,97985.47
2022-11-14T14:34:59.549Z,97982.16
2022-11-14T14:37:50.453Z,97988.38
2022-11-14T14:40:36.888Z,97976.00
2022-11-14T14:43:42.557Z,97965.09
2022-11-14T14:46:30.095Z,97971.50
2022-11-14T14:49:20.252Z,97975.63
2022-11-14T14:52:22.288Z,97970.09
2022-11-14T14:55:17.685Z,97962.06
2022-11-14T14:58:23.555Z,97960.84
2022-11-14T15:01:11.900Z,97951.97
2022-11-14T15:04:04.971Z,97949.69
2022-11-14T15:06:51.515Z,97950.53
2022-11-14T15:09:37.593Z,97948.88
2022-11-14T15:12:27.412Z,97955.91
2022-11-14T15:15:13.881Z,97941.88
2022-11-14T15:18:02.286Z,97941.69
2022-11-14T15:21:06.257Z,97949.31
2022-11-14T15:23:59.400Z,97948.91
2022-11-14T15:26:45.851Z,97946.63
2022-11-14T15:29:32.940Z,97948.50
2022-11-14T15:32:22.857Z,97955.91
2022-11-14T15:35:10.574Z,97949.31
2022-11-14T15:38:22.151Z,97961.69
2022-11-14T15:41:19.626Z,97960.03
2022-11-14T15:44:05.639Z,97958.38
2022-11-14T15:46:51.671Z,97965.81
2022-11-14T15:49:38.285Z,97951.16
2022-11-14T15:52:41.168Z,97955.69
2022-11-14T15:55:27.152Z,97957.13
2022-11-14T15:58:27.720Z,97963.91
2022-11-14T16:01:18.443Z,97966.59
2022-11-14T16:04:04.126Z,97965.38
2022-11-14T16:06:50.332Z,97970.31
2022-11-14T16:09:36.268Z,97977.13
2022-11-14T16:12:21.720Z,97973.19
2022-11-14T16:15:07.662Z,97978.97
2022-11-14T16:17:53.420Z,97975.84
2022-11-14T16:20:39.611Z,97969.25
2022-11-14T16:23:25.130Z,97985.53
2022-11-14T16:26:11.017Z,97982.84
2022-11-14T16:28:57.083Z,97982.22
2022-11-14T16:31:42.772Z,97982.63
2022-11-14T16:34:28.502Z,97986.09
2022-11-14T16:37:14.787Z,97984.84
2022-11-14T16:40:00.357Z,97988.16
2022-11-14T16:42:46.358Z,97986.66
2022-11-14T16:45:31.874Z,97995.91
2022-11-14T16:48:17.434Z,97992.84
2022-11-14T16:51:14.764Z,97993.03
2022-11-14T16:54:00.642Z,97987.03
2022-11-14T16:56:46.988Z,98000.19
2022-11-14T16:59:32.845Z,98003.44
2022-11-14T17:02:18.802Z,98001.81
2022-11-14T17:05:04.965Z,98005.72
2022-11-14T17:07:50.528Z,98018.66
2022-11-14T17:10:40.067Z,98005.88
2022-11-14T17:13:25.690Z,98010.00
2022-11-14T17:16:11.218Z,98019.22
2022-11-14T17:18:56.795Z,98011.16
2022-11-14T17:21:43.031Z,98005.97
2022-11-14T17:24:31.550Z,98005.97
2022-11-14T17:27:17.308Z,98008.84
2022-11-14T17:30:03.244Z,98008.19
2022-11-14T17:32:53.750Z,98007.59
2022-11-14T17:35:42.013Z,98003.47
2022-11-14T17:38:27.645Z,98010.84
2022-11-14T17:41:13.480Z,98007.34
2022-11-14T17:44:02.492Z,98011.06
2022-11-14T17:46:48.289Z,98015.97
2022-11-14T17:49:34.230Z,98009.38
2022-11-14T17:52:19.544Z,98011.78
2022-11-14T17:55:05.397Z,98006.84
2022-11-14T17:57:51.217Z,98008.22
2022-11-14T18:00:37.169Z,98011.94
2022-11-14T18:03:23.076Z,98005.97
2022-11-14T18:06:09.955Z,98002.66
2022-11-14T18:08:55.940Z,98012.91
2022-11-14T18:11:41.435Z,98013.69
2022-11-14T18:14:27.144Z,98011.53
2022-11-14T18:17:13.614Z,98014.78
2022-11-14T18:20:00.760Z,98013.72
2022-11-14T18:22:46.246Z,98005.66
2022-11-14T18:25:32.019Z,98007.47
2022-11-14T18:28:17.470Z,98010.16
2022-11-14T18:31:04.646Z,98012.00
2022-11-14T18:33:50.277Z,98010.56
2022-11-14T18:36:35.935Z,98020.59
2022-11-14T18:39:21.535Z,98026.59
2022-11-14T18:42:07.257Z,98014.44
2022-11-14T18:44:53.143Z,98012.59
2022-11-14T18:47:39.078Z,98010.94
2022-11-14T18:50:24.766Z,98014.63
2022-11-14T18:53:10.516Z,98017.47
2022-11-14T18:55:56.350Z,98019.31
2022-11-14T18:58:42.581Z,98023.00
2022-11-14T19:01:29.621Z,98029.38
2022-11-14T19:04:19.636Z,98025.25
2022-11-14T19:07:05.466Z,98026.66
2022-11-14T19:09:51.084Z,98022.31
2022-11-14T19:12:37.045Z,98027.84
2022-11-14T19:15:22.806Z,98023.09
2022-11-14T19:18:08.713Z,98024.47
2022-11-14T19:21:01.703Z,98019.72
2022-11-14T19:23:47.159Z,98022.94
2022-11-14T19:26:33.268Z,98030.69
2022-11-14T19:29:18.928Z,98031.84
2022-11-14T19:32:04.446Z,98026.25
2022-11-14T19:34:49.882Z,98030.13
2022-11-14T19:37:35.620Z,98030.53
2022-11-14T19:40:21.530Z,98036.22
2022-11-14T19:43:09.072Z,98032.91
2022-11-14T19:45:58.197Z,98029.63
2022-11-14T19:48:43.985Z,98033.28
2022-11-14T19:51:30.334Z,98031.63
2022-11-14T19:54:17.167Z,98032.66
2022-11-14T19:57:02.812Z,98029.97
2022-11-14T19:59:48.657Z,98035.31
2022-11-14T20:02:38.497Z,98044.78
2022-11-14T20:05:23.878Z,98046.00
2022-11-14T20:08:09.662Z,98048.84
2022-11-14T20:11:02.578Z,98049.06
2022-11-14T20:13:48.914Z,98054.16
2022-11-14T20:16:35.588Z,98054.16
2022-11-14T20:19:21.049Z,98055.22
2022-11-14T20:22:06.850Z,98060.72
2022-11-14T20:24:52.544Z,98066.06
2022-11-14T20:27:38.606Z,98062.56
2022-11-14T20:30:24.290Z,98059.91
2022-11-14T20:33:10.642Z,98058.81
2022-11-14T20:35:56.353Z,98066.44
2022-11-14T20:38:42.141Z,98068.09
2022-11-14T20:41:27.576Z,98068.09
2022-11-14T20:44:13.658Z,98072.59
2022-11-14T20:46:59.273Z,98067.81
2022-11-14T20:49:46.896Z,98072.16
2022-11-14T20:52:32.407Z,98077.28
2022-11-14T20:55:18.374Z,98073.06
2022-11-14T20:58:04.002Z,98076.34
2022-11-14T21:00:50.223Z,98074.69
2022-11-14T21:03:36.453Z,98075.91
2022-11-14T21:06:22.183Z,98086.09
2022-11-14T21:09:08.139Z,98085.66
2022-11-14T21:11:53.847Z,98084.38
2022-11-14T21:14:39.546Z,98086.59
2022-11-14T21:17:25.455Z,98081.78
2022-11-14T21:20:11.312Z,98076.66
2022-11-14T21:22:57.103Z,98079.69
2022-11-14T21:25:42.890Z,98081.72
2022-11-14T21:28:29.650Z,98077.78
2022-11-14T21:31:24.137Z,98070.13
2022-11-14T21:34:14.146Z,98071.53
2022-11-14T21:36:59.698Z,98071.03
2022-11-14T21:39:48.356Z,98066.75
2022-11-14T21:42:34.279Z,98061.94
2022-11-14T21:45:19.713Z,98065.63
2022-11-14T21:48:05.782Z,98072.16
2022-11-14T21:50:51.777Z,98069.69
2022-11-14T21:53:38.914Z,98055.03
2022-11-14T21:56:25.991Z,98055.03
2022-11-14T21:59:13.556Z,98059.09
2022-11-14T22:02:38.193Z,98054.94
2022-11-14T22:05:23.857Z,98050.00
2022-11-14T22:08:09.339Z,98052.19
2022-11-14T22:11:00.149Z,98057.91
2022-11-14T22:13:45.524Z,98051.91
2022-11-14T22:16:31.423Z,98051.91
2022-11-14T22:19:16.936Z,98053.94
2022-11-14T22:22:02.471Z,98057.59
2022-11-14T22:24:48.155Z,98053.28
2022-11-14T22:27:33.777Z,98057.59
2022-11-14T22:30:19.705Z,98055.59
2022-11-14T22:33:05.531Z,98053.94
2022-11-14T22:35:51.293Z,98057.59
2022-11-14T22:38:37.787Z,98052.44
2022-11-14T22:41:31.754Z,98060.25
2022-11-14T22:44:17.554Z,98052.00
2022-11-14T22:47:03.225Z,98057.88
2022-11-14T22:49:49.109Z,98056.41
2022-11-14T22:52:34.689Z,98057.56
2022-11-14T22:55:20.490Z,98059.41
2022-11-14T22:58:06.324Z,98067.78
2022-11-14T23:00:52.486Z,98070.44
2022-11-14T23:03:39.623Z,98066.13
2022-11-14T23:06:26.263Z,98062.81
2022-11-14T23:09:11.788Z,98063.81
2022-11-14T23:11:57.525Z,98058.47
2022-11-14T23:14:46.172Z,98064.63
2022-11-14T23:17:31.678Z,98064.63
2022-11-14T23:20:17.412Z,98056.19
2022-11-14T23:23:03.709Z,98071.53
2022-11-14T23:25:49.906Z,98064.53
2022-11-14T23:28:36.118Z,98069.84
2022-11-14T23:31:21.949Z,98069.19
2022-11-14T23:34:07.641Z,98064.06
2022-11-14T23:36:53.226Z,98066.91
2022-11-14T23:39:38.901Z,98058.28
2022-11-14T23:42:24.729Z,98068.25
2022-11-14T23:45:10.572Z,98069.47
2022-11-14T23:47:56.379Z,98065.31
2022-11-14T23:50:42.932Z,98062.19
2022-11-14T23:53:28.963Z,98074.69
2022-11-14T23:56:16.157Z,98065.03
2022-11-14T23:59:01.608Z,98058.06
